• Join FlightAware (Why Join?)
  • Login
  • US Flag 
06:38AM EST


 

Airport Tracker/Info


-or-


 

Live Flight TrackerFlight Track Log ✈ SWA1688 ✈ 13-May-2013 ✈ KMCO - KALB

Flight Track Log - Related Links

Times and Time Zones

All times are in EDT time to prevent confusion due to time zone crossing. See the SWA1688 flight status page for this flight to view local times or setup timezone preferences in your user account.

Time Position Orientation Groundspeed Altitude Reporting Facility
EDT Latitude Longitude Course Direction KTS MPH feet Rate Location/Type
09:31PM 28.4333 -81.3000 41° Northeast 155 178 1,100  Level Orlando TRACON
09:32PM 28.4500 -81.2833 41° Northeast 153 176 1,800 2,354 Climbing Orlando TRACON
09:33PM 28.5000 -81.2667 16° North 237 273 4,200 2,900 Climbing Orlando TRACON
09:34PM 28.5667 -81.2667 360° North 269 310 7,600 3,450 Climbing Orlando TRACON
09:35PM 28.6333 -81.2833 348° North 271 312 11,100 3,256 Climbing Orlando TRACON
09:36PM 28.7872 -81.3194 348° North 324 373 16,500 3,220 Climbing Jacksonville Center
09:37PM 28.8794 -81.3442 347° North 336 387 19,900 3,200 Climbing Jacksonville Center
09:38PM 28.9797 -81.3639 350° North 348 400 22,900 1,550 Climbing Jacksonville Center
09:39PM 29.0822 -81.3839 350° North 360 414 23,000 9,050 Climbing Jacksonville Center
09:40PM 29.1869 -81.3989 353° North 370 426 41,000 3,400 Climbing Jacksonville Center
09:41PM 29.2831 -81.4092 355° North 364 419 29,800 -4,400 Descending Jacksonville Center
09:42PM 29.3792 -81.4222 353° North 359 413 32,200 2,100 Climbing Jacksonville Center
09:43PM 29.4814 -81.4278 357° North 359 413 34,000 1,700 Climbing Jacksonville Center
09:44PM 29.5881 -81.4381 355° North 365 420 35,600 1,350 Climbing Jacksonville Center
09:45PM 29.6947 -81.4486 355° North 376 433 36,700 1,300 Climbing Jacksonville Center
09:46PM 29.8075 -81.4589 355° North 388 447 38,200 1,450 Climbing Jacksonville Center
09:47PM 29.9161 -81.4692 355° North 388 447 39,600 1,400 Climbing Jacksonville Center
09:48PM 30.0228 -81.4794 355° North 388 447 41,000 700 Climbing Jacksonville Center
09:49PM 30.1336 -81.4853 357° North 388 447 41,000  Level Jacksonville Center
09:50PM 30.2461 -81.4692 North 388 447 41,000  Level Jacksonville Center
09:51PM 30.3608 -81.4531 North 400 460 41,000  Level Jacksonville Center
09:52PM 30.4858 -81.4367 North 412 474 41,000  Level Jacksonville Center
09:53PM 30.6003 -81.4181 North 412 474 41,000  Level Jacksonville Center
09:54PM 30.7131 -81.4042 North 412 474 41,000  Level Jacksonville Center
09:55PM 30.8275 -81.3878 North 412 474 41,000  Level Jacksonville Center
09:56PM 30.9444 -81.3714 North 412 474 41,000  Level Jacksonville Center
09:57PM 31.0569 -81.3575 North 412 474 41,000  Level Jacksonville Center
09:58PM 31.1717 -81.3411 North 407 468 41,000  Level Jacksonville Center
09:59PM 31.2842 -81.3247 North 407 468 41,000  Level Jacksonville Center
10:00PM 31.3861 -81.3083 North 407 468 41,000  Level Jacksonville Center
10:01PM 31.5131 -81.2769 12° North 407 468 41,000  Level Jacksonville Center
10:02PM 31.6147 -81.2189 26° Northeast 432 497 41,000  Level Jacksonville Center
10:03PM 31.7392 -81.1483 26° Northeast 447 514 41,000  Level Jacksonville Center
10:04PM 31.8489 -81.0828 27° Northeast 447 514 41,000  Level Jacksonville Center
10:05PM 31.9481 -81.0219 27° Northeast 447 514 41,000  Level Jacksonville Center
10:06PM 32.0744 -80.9508 25° Northeast 446 513 41,000  Level Jacksonville Center
10:07PM 32.1758 -80.8947 25° Northeast 445 512 41,000 -350 Level Jacksonville Center
10:08PM 32.2978 -80.8231 26° Northeast 442 509 40,300 -1,000 Descending Jacksonville Center
10:09PM 32.4053 -80.7617 26° Northeast 436 502 39,000 -650 Descending Jacksonville Center
10:10PM 32.5025 -80.7003 28° Northeast 431 496 39,000  Level Jacksonville Center
10:11PM 32.6078 -80.6411 25° Northeast 420 483 39,000  Level Jacksonville Center
10:12PM 32.7175 -80.5814 25° Northeast 420 483 39,000  Level Jacksonville Center
10:13PM 32.8228 -80.5244 24° Northeast 420 483 39,000  Level Jacksonville Center
10:14PM 32.9303 -80.4672 24° Northeast 420 483 39,000  Level Jacksonville Center
10:15PM 33.0356 -80.4072 26° Northeast 414 476 39,000  Level Jacksonville Center
10:16PM 33.1450 -80.3497 24° Northeast 420 483 39,000  Level Jacksonville Center
10:17PM 33.2647 -80.2842 25° Northeast 420 483 39,000  Level Jacksonville Center
10:18PM 33.3742 -80.2236 25° Northeast 420 483 39,000  Level Jacksonville Center
10:19PM 33.4772 -80.1633 26° Northeast 414 476 39,000  Level Jacksonville Center
10:20PM 33.5864 -80.1028 25° Northeast 414 476 39,000  Level Jacksonville Center
10:21PM 33.6936 -80.0419 25° Northeast 414 476 39,000  Level Jacksonville Center
10:22PM 33.8008 -79.9808 25° Northeast 414 476 39,000  Level Jacksonville Center
10:23PM 33.9100 -79.9197 25° Northeast 414 476 39,000  Level Jacksonville Center
10:26PM 34.1206 -79.8011 25° Northeast 413 475 39,000  Level Washington Center
10:27PM 34.2442 -79.7269 26° Northeast 424 488 39,000  Level Washington Center
10:28PM 34.3528 -79.6669 25° Northeast 429 494 39,000  Level Washington Center
10:29PM 34.4633 -79.6069 24° Northeast 429 494 39,000  Level Washington Center
10:30PM 34.5681 -79.5264 32° Northeast 434 499 39,000  Level Washington Center
10:31PM 34.6711 -79.4431 34° Northeast 440 506 39,000  Level Washington Center
10:32PM 34.7758 -79.3594 33° Northeast 445 512 39,000  Level Washington Center
10:33PM 34.8767 -79.2781 34° Northeast 445 512 39,000  Level Washington Center
10:34PM 34.9836 -79.1917 33° Northeast 445 512 39,000  Level Washington Center
10:35PM 35.0883 -79.1100 33° Northeast 445 512 39,000  Level Washington Center
10:36PM 35.1928 -79.0256 33° Northeast 445 512 39,000  Level Washington Center
10:37PM 35.2975 -78.9436 33° Northeast 445 512 39,000  Level Washington Center
10:38PM 35.4022 -78.8564 34° Northeast 445 512 39,000  Level Washington Center
10:39PM 35.5067 -78.7764 32° Northeast 445 512 39,000  Level Washington Center
10:40PM 35.5964 -78.6956 36° Northeast 451 519 39,000  Level Washington Center
10:41PM 35.7028 -78.6153 31° Northeast 451 519 39,000  Level Washington Center
10:42PM 35.8050 -78.5294 34° Northeast 446 513 39,000  Level Washington Center
10:43PM 35.9072 -78.4461 33° Northeast 441 507 39,000  Level Washington Center
10:44PM 36.0072 -78.3625 34° Northeast 441 507 39,000  Level Washington Center
10:45PM 36.1072 -78.2761 35° Northeast 441 507 39,000  Level Washington Center
10:46PM 36.2092 -78.1944 33° Northeast 436 502 39,000  Level Washington Center
10:47PM 36.3133 -78.1078 34° Northeast 436 502 39,000  Level Washington Center
10:48PM 36.4131 -78.0258 33° Northeast 436 502 39,000  Level Washington Center
10:49PM 36.5108 -77.9383 36° Northeast 430 495 39,000  Level Washington Center
10:50PM 36.6125 -77.8561 33° Northeast 435 501 39,000  Level Washington Center
10:51PM 36.7142 -77.7683 35° Northeast 435 501 39,000  Level Washington Center
10:52PM 36.8117 -77.6828 35° Northeast 430 495 39,000  Level Washington Center
10:53PM 36.9156 -77.5947 34° Northeast 435 501 39,000  Level Washington Center
10:54PM 37.0150 -77.5089 35° Northeast 435 501 39,000  Level Washington Center
10:55PM 37.1164 -77.4228 34° Northeast 435 501 39,000  Level Washington Center
10:56PM 37.2178 -77.3367 34° Northeast 435 501 39,000  Level Washington Center
10:57PM 37.3211 -77.2503 34° Northeast 435 501 39,000  Level Washington Center
10:58PM 37.4353 -77.1481 35° Northeast 435 501 39,000  Level Washington Center
10:59PM 37.5300 -77.0689 34° Northeast 453 521 39,000  Level Washington Center
11:00PM 37.6314 -76.9789 35° Northeast 453 521 39,000  Level Washington Center
11:01PM 37.7325 -76.8889 35° Northeast 453 521 39,000  Level Washington Center
11:02PM 37.8356 -76.7961 35° Northeast 453 521 39,000  Level Washington Center
11:03PM 37.9386 -76.7081 34° Northeast 453 521 39,000  Level Washington Center
11:04PM 38.0394 -76.6172 35° Northeast 448 516 39,000  Level Washington Center
11:05PM 38.1425 -76.5264 35° Northeast 448 516 39,000  Level Washington Center
11:06PM 38.2453 -76.4378 34° Northeast 448 516 39,000  Level Washington Center
11:07PM 38.3439 -76.3489 35° Northeast 441 507 39,000  Level Washington Center
11:08PM 38.4444 -76.2597 35° Northeast 441 507 39,000  Level Washington Center
11:09PM 38.5450 -76.1678 36° Northeast 441 507 39,000  Level Washington Center
11:10PM 38.6517 -76.0756 34° Northeast 450 518 39,000  Level Washington Center
11:11PM 38.7522 -75.9831 36° Northeast 450 518 39,000  Level Washington Center
11:12PM 38.8544 -75.8903 35° Northeast 445 512 39,000  Level Washington Center
11:13PM 38.9547 -75.7972 36° Northeast 445 512 39,000  Level Washington Center
11:14PM 39.0592 -75.7039 35° Northeast 445 512 39,000  Level Washington Center
11:15PM 39.1614 -75.6103 35° Northeast 445 512 39,000  Level Washington Center
11:16PM 39.2633 -75.5167 35° Northeast 445 512 39,000  Level Washington Center
11:17PM 39.3656 -75.4197 36° Northeast 445 512 39,000  Level Washington Center
11:18PM 39.4694 -75.3253 35° Northeast 450 518 39,000  Level Washington Center
11:19PM 39.5756 -75.2253 36° Northeast 450 518 39,000  Level Washington Center
11:20PM 39.6792 -75.1278 36° Northeast 450 518 39,000 -252 Level Washington Center
11:21PM 39.7956 -75.0189 36° Northeast 459 528 38,500 -1,143 Descending Washington Center
11:23PM 40.0253 -74.7583 41° Northeast 469 540 35,000 -1,000 Descending New York Center
11:24PM 40.1108 -74.6331 48° Northeast 459 528 35,000  Level New York Center
11:25PM 40.1958 -74.5153 47° Northeast 453 521 35,000  Level New York Center
11:26PM 40.2983 -74.4394 29° Northeast 427 491 35,000  Level New York Center
11:27PM 40.4161 -74.4075 12° North 416 479 35,000  Level New York Center
11:28PM 40.5336 -74.3808 10° North 416 479 35,000  Level New York Center
11:29PM 40.6511 -74.3489 12° North 421 484 35,000 -59 Level New York Center
11:31PM 40.9536 -74.2758 10° North 441 507 34,800 -870 Descending Boston Center
11:32PM 41.0731 -74.2436 11° North 430 495 32,000 -2,700 Descending Boston Center
11:33PM 41.1900 -74.2164 10° North 430 495 29,400 -2,450 Descending Boston Center
11:34PM 41.3011 -74.1864 11° North 421 484 27,100 -1,700 Descending Boston Center
11:35PM 41.4036 -74.1558 13° North 396 456 26,000 -700 Descending Boston Center
11:36PM 41.5019 -74.1336 10° North 381 438 25,700 -750 Descending Boston Center
11:37PM 41.6003 -74.1086 11° North 365 420 24,500 -1,250 Descending Boston Center
11:38PM 41.6903 -74.0831 12° North 347 399 23,200 -2,200 Descending Boston Center
11:39PM 41.7844 -74.0606 10° North 335 386 20,100 -2,273 Descending Boston Center
11:41PM 41.8681 -74.0375 12° North 329 379 18,200 -1,900 Descending Boston Center
11:41PM 41.9497 -74.0200 North 304 350 16,300 -2,139 Descending Boston Center
11:43PM 42.0439 -73.9944 11° North 295 339 14,100 -1,969 Descending Boston Center
11:44PM 42.1233 -73.9711 12° North 294 338 12,100 -1,587 Descending Boston Center
11:45PM 42.2006 -73.9506 11° North 287 330 10,900 -1,388 Descending Boston Center
11:46PM 42.2739 -73.9300 12° North 268 308 9,300 -1,537 Descending Boston Center
11:47PM 42.3450 -73.9147 North 255 293 7,800 -1,686 Descending Boston Center
11:48PM 42.4161 -73.8856 17° North 248 285 5,900 -1,875 Descending Boston Center
11:49PM 42.4894 -73.8619 13° North 244 281 3,800 -1,559 Descending Boston Center
11:50PM 42.5503 -73.8408 14° North 230 265 2,600 -645 Descending Boston Center
11:51PM 42.6044 -73.8222 14° North 194 223 2,500 -248 Descending Boston Center
11:52PM 42.6486 -73.8036 17° North 173 199 2,100 -595 Descending Boston Center
11:53PM 42.6881 -73.8044 359° North 120 138 1,300 -689 Descending Boston Center
11:54PM 42.7214 -73.8078 356° North 108 124 700 -590 Descending Boston Center